sensor_id;sensor_type;location;lat;lon;timestamp;P1;durP1;ratioP1;P2;durP2;ratioP2
2061;SDS011;11070;51.336;12.340;2023-08-01T00:00:16;6.88;;;6.28;;
2061;SDS011;11070;51.336;12.340;2023-08-01T00:02:42;7.57;;;6.57;;
2061;SDS011;11070;51.336;12.340;2023-08-01T00:05:07;6.90;;;6.10;;
2061;SDS011;11070;51.336;12.340;2023-08-01T00:07:34;9.32;;;6.10;;
2061;SDS011;11070;51.336;12.340;2023-08-01T00:09:59;7.50;;;6.10;;
2061;SDS011;11070;51.336;12.340;2023-08-01T00:12:25;7.03;;;6.10;;
2061;SDS011;11070;51.336;12.340;2023-08-01T00:14:51;7.93;;;5.83;;
2061;SDS011;11070;51.336;12.340;2023-08-01T00:17:16;7.43;;;5.40;;
2061;SDS011;11070;51.336;12.340;2023-08-01T00:19:42;6.53;;;5.90;;
2061;SDS011;11070;51.336;12.340;2023-08-01T00:22:08;9.73;;;5.43;;
2061;SDS011;11070;51.336;12.340;2023-08-01T00:24:34;6.97;;;5.63;;
2061;SDS011;11070;51.336;12.340;2023-08-01T00:27:01;6.43;;;5.55;;
2061;SDS011;11070;51.336;12.340;2023-08-01T00:29:26;5.47;;;4.97;;
2061;SDS011;11070;51.336;12.340;2023-08-01T00:31:52;8.00;;;5.50;;
2061;SDS011;11070;51.336;12.340;2023-08-01T00:34:17;5.23;;;4.83;;
2061;SDS011;11070;51.336;12.340;2023-08-01T00:36:43;5.73;;;5.10;;
2061;SDS011;11070;51.336;12.340;2023-08-01T00:39:09;5.57;;;5.00;;
2061;SDS011;11070;51.336;12.340;2023-08-01T00:41:34;5.47;;;4.97;;
2061;SDS011;11070;51.336;12.340;2023-08-01T00:44:00;6.93;;;5.00;;
2061;SDS011;11070;51.336;12.340;2023-08-01T00:46:26;6.30;;;4.73;;
2061;SDS011;11070;51.336;12.340;2023-08-01T00:48:52;5.60;;;4.50;;
2061;SDS011;11070;51.336;12.340;2023-08-01T00:51:22;5.75;;;5.07;;
2061;SDS011;11070;51.336;12.340;2023-08-01T00:53:49;5.05;;;4.63;;
2061;SDS011;11070;51.336;12.340;2023-08-01T00:56:16;4.65;;;4.25;;
2061;SDS011;11070;51.336;12.340;2023-08-01T00:58:42;5.40;;;4.57;;
2061;SDS011;11070;51.336;12.340;2023-08-01T01:01:07;4.43;;;4.10;;
2061;SDS011;11070;51.336;12.340;2023-08-01T01:03:33;5.43;;;4.93;;
2061;SDS011;11070;51.336;12.340;2023-08-01T01:06:13;5.47;;;4.97;;
2061;SDS011;11070;51.336;12.340;2023-08-01T01:08:49;5.38;;;4.88;;
2061;SDS011;11070;51.336;12.340;2023-08-01T01:11:15;5.20;;;4.70;;
2061;SDS011;11070;51.336;12.340;2023-08-01T01:13:40;4.83;;;4.23;;
2061;SDS011;11070;51.336;12.340;2023-08-01T01:16:06;4.47;;;4.17;;
2061;SDS011;11070;51.336;12.340;2023-08-01T01:18:32;4.63;;;4.10;;
2061;SDS011;11070;51.336;12.340;2023-08-01T01:20:57;4.53;;;4.17;;
2061;SDS011;11070;51.336;12.340;2023-08-01T01:23:23;4.93;;;3.83;;
2061;SDS011;11070;51.336;12.340;2023-08-01T01:25:50;10.38;;;4.80;;
2061;SDS011;11070;51.336;12.340;2023-08-01T01:28:17;5.30;;;4.22;;
2061;SDS011;11070;51.336;12.340;2023-08-01T01:30:44;4.60;;;4.20;;
2061;SDS011;11070;51.336;12.340;2023-08-01T01:33:10;4.57;;;3.70;;
2061;SDS011;11070;51.336;12.340;2023-08-01T01:35:37;4.53;;;4.13;;
2061;SDS011;11070;51.336;12.340;2023-08-01T01:38:04;5.70;;;4.60;;
2061;SDS011;11070;51.336;12.340;2023-08-01T01:40:30;6.80;;;4.03;;
2061;SDS011;11070;51.336;12.340;2023-08-01T01:42:56;5.20;;;4.70;;
2061;SDS011;11070;51.336;12.340;2023-08-01T01:45:22;5.00;;;4.60;;
2061;SDS011;11070;51.336;12.340;2023-08-01T01:47:48;4.73;;;4.33;;
2061;SDS011;11070;51.336;12.340;2023-08-01T01:50:13;5.07;;;4.43;;
2061;SDS011;11070;51.336;12.340;2023-08-01T01:52:39;5.23;;;4.40;;
2061;SDS011;11070;51.336;12.340;2023-08-01T01:55:05;4.43;;;4.03;;
2061;SDS011;11070;51.336;12.340;2023-08-01T01:57:30;5.10;;;4.70;;
2061;SDS011;11070;51.336;12.340;2023-08-01T01:59:56;5.63;;;4.97;;
2061;SDS011;11070;51.336;12.340;2023-08-01T02:02:22;5.63;;;4.70;;
2061;SDS011;11070;51.336;12.340;2023-08-01T02:04:47;6.50;;;4.87;;
2061;SDS011;11070;51.336;12.340;2023-08-01T02:07:14;5.68;;;4.82;;
2061;SDS011;11070;51.336;12.340;2023-08-01T02:09:40;5.30;;;4.87;;
2061;SDS011;11070;51.336;12.340;2023-08-01T02:12:06;6.90;;;5.40;;
2061;SDS011;11070;51.336;12.340;2023-08-01T02:14:34;6.15;;;5.65;;
2061;SDS011;11070;51.336;12.340;2023-08-01T02:17:00;6.63;;;5.68;;
2061;SDS011;11070;51.336;12.340;2023-08-01T02:19:26;4.97;;;4.57;;
2061;SDS011;11070;51.336;12.340;2023-08-01T02:21:53;5.70;;;4.90;;
2061;SDS011;11070;51.336;12.340;2023-08-01T02:24:18;6.38;;;5.75;;
2061;SDS011;11070;51.336;12.340;2023-08-01T02:26:44;6.80;;;5.80;;
2061;SDS011;11070;51.336;12.340;2023-08-01T02:29:10;6.57;;;5.97;;
2061;SDS011;11070;51.336;12.340;2023-08-01T02:31:36;7.77;;;5.53;;
2061;SDS011;11070;51.336;12.340;2023-08-01T02:34:01;6.10;;;5.60;;
2061;SDS011;11070;51.336;12.340;2023-08-01T02:36:27;5.63;;;5.10;;
2061;SDS011;11070;51.336;12.340;2023-08-01T02:38:53;5.20;;;4.80;;
2061;SDS011;11070;51.336;12.340;2023-08-01T02:41:18;5.40;;;4.90;;
2061;SDS011;11070;51.336;12.340;2023-08-01T02:43:44;5.70;;;4.97;;
2061;SDS011;11070;51.336;12.340;2023-08-01T02:46:10;7.30;;;5.20;;
2061;SDS011;11070;51.336;12.340;2023-08-01T02:48:38;5.85;;;5.25;;
2061;SDS011;11070;51.336;12.340;2023-08-01T02:51:03;6.77;;;4.90;;
2061;SDS011;11070;51.336;12.340;2023-08-01T02:53:29;4.63;;;4.23;;
2061;SDS011;11070;51.336;12.340;2023-08-01T02:55:55;5.80;;;4.70;;
2061;SDS011;11070;51.336;12.340;2023-08-01T02:58:20;4.30;;;4.00;;
2061;SDS011;11070;51.336;12.340;2023-08-01T03:00:46;4.97;;;4.07;;
2061;SDS011;11070;51.336;12.340;2023-08-01T03:03:12;4.55;;;4.15;;
2061;SDS011;11070;51.336;12.340;2023-08-01T03:05:38;5.10;;;4.40;;
2061;SDS011;11070;51.336;12.340;2023-08-01T03:08:04;4.60;;;4.20;;
2061;SDS011;11070;51.336;12.340;2023-08-01T03:10:30;4.05;;;3.65;;
2061;SDS011;11070;51.336;12.340;2023-08-01T03:12:56;4.87;;;4.00;;
2061;SDS011;11070;51.336;12.340;2023-08-01T03:15:21;6.37;;;4.00;;
2061;SDS011;11070;51.336;12.340;2023-08-01T03:17:47;4.83;;;4.00;;
2061;SDS011;11070;51.336;12.340;2023-08-01T03:20:13;3.93;;;3.63;;
2061;SDS011;11070;51.336;12.340;2023-08-01T03:22:38;3.70;;;3.40;;
2061;SDS011;11070;51.336;12.340;2023-08-01T03:25:05;3.70;;;3.40;;
2061;SDS011;11070;51.336;12.340;2023-08-01T03:27:35;5.30;;;3.50;;
2061;SDS011;11070;51.336;12.340;2023-08-01T03:30:01;3.80;;;3.50;;
2061;SDS011;11070;51.336;12.340;2023-08-01T03:32:27;3.75;;;3.53;;
2061;SDS011;11070;51.336;12.340;2023-08-01T03:34:53;4.03;;;3.63;;
2061;SDS011;11070;51.336;12.340;2023-08-01T03:37:18;3.40;;;3.13;;
2061;SDS011;11070;51.336;12.340;2023-08-01T03:39:44;8.50;;;3.30;;
2061;SDS011;11070;51.336;12.340;2023-08-01T03:42:10;3.80;;;3.50;;
2061;SDS011;11070;51.336;12.340;2023-08-01T03:44:36;3.80;;;3.53;;
2061;SDS011;11070;51.336;12.340;2023-08-01T03:47:02;4.00;;;3.70;;
2061;SDS011;11070;51.336;12.340;2023-08-01T03:49:27;4.70;;;3.40;;
2061;SDS011;11070;51.336;12.340;2023-08-01T03:51:53;3.93;;;3.40;;
2061;SDS011;11070;51.336;12.340;2023-08-01T03:54:19;3.93;;;3.47;;
2061;SDS011;11070;51.336;12.340;2023-08-01T03:56:44;4.10;;;3.67;;
2061;SDS011;11070;51.336;12.340;2023-08-01T03:59:12;5.10;;;3.40;;
2061;SDS011;11070;51.336;12.340;2023-08-01T04:01:41;8.35;;;3.67;;
2061;SDS011;11070;51.336;12.340;2023-08-01T04:04:07;4.68;;;4.22;;
2061;SDS011;11070;51.336;12.340;2023-08-01T04:06:33;4.28;;;3.85;;
2061;SDS011;11070;51.336;12.340;2023-08-01T04:08:59;4.93;;;3.60;;
2061;SDS011;11070;51.336;12.340;2023-08-01T04:11:27;4.18;;;3.88;;
2061;SDS011;11070;51.336;12.340;2023-08-01T04:13:54;3.92;;;3.63;;
2061;SDS011;11070;51.336;12.340;2023-08-01T04:16:21;4.00;;;3.70;;
2061;SDS011;11070;51.336;12.340;2023-08-01T04:18:46;4.60;;;4.20;;
2061;SDS011;11070;51.336;12.340;2023-08-01T04:21:13;4.37;;;3.97;;
2061;SDS011;11070;51.336;12.340;2023-08-01T04:23:40;9.23;;;3.83;;
2061;SDS011;11070;51.336;12.340;2023-08-01T04:26:06;5.25;;;4.03;;
2061;SDS011;11070;51.336;12.340;2023-08-01T04:28:32;4.20;;;3.80;;
2061;SDS011;11070;51.336;12.340;2023-08-01T04:30:58;4.70;;;4.07;;
2061;SDS011;11070;51.336;12.340;2023-08-01T04:33:24;4.00;;;3.70;;
2061;SDS011;11070;51.336;12.340;2023-08-01T04:35:49;4.17;;;3.87;;
2061;SDS011;11070;51.336;12.340;2023-08-01T04:38:15;3.75;;;3.45;;
2061;SDS011;11070;51.336;12.340;2023-08-01T04:40:41;4.27;;;3.87;;
2061;SDS011;11070;51.336;12.340;2023-08-01T04:43:07;4.00;;;3.63;;
2061;SDS011;11070;51.336;12.340;2023-08-01T04:45:33;4.77;;;3.47;;
2061;SDS011;11070;51.336;12.340;2023-08-01T04:47:58;3.90;;;3.60;;
2061;SDS011;11070;51.336;12.340;2023-08-01T04:50:24;4.37;;;3.97;;
2061;SDS011;11070;51.336;12.340;2023-08-01T04:52:50;3.80;;;3.50;;
2061;SDS011;11070;51.336;12.340;2023-08-01T04:55:15;4.60;;;3.73;;
2061;SDS011;11070;51.336;12.340;2023-08-01T04:57:41;4.70;;;4.30;;
2061;SDS011;11070;51.336;12.340;2023-08-01T05:00:09;3.58;;;3.35;;
2061;SDS011;11070;51.336;12.340;2023-08-01T05:02:35;4.25;;;3.60;;
2061;SDS011;11070;51.336;12.340;2023-08-01T05:05:01;3.40;;;3.10;;
2061;SDS011;11070;51.336;12.340;2023-08-01T05:07:27;4.63;;;3.70;;
2061;SDS011;11070;51.336;12.340;2023-08-01T05:09:52;4.30;;;3.50;;
2061;SDS011;11070;51.336;12.340;2023-08-01T05:12:18;4.20;;;3.80;;
2061;SDS011;11070;51.336;12.340;2023-08-01T05:14:44;4.10;;;3.40;;
2061;SDS011;11070;51.336;12.340;2023-08-01T05:17:09;7.00;;;4.30;;
2061;SDS011;11070;51.336;12.340;2023-08-01T05:19:35;3.63;;;3.30;;
2061;SDS011;11070;51.336;12.340;2023-08-01T05:22:01;3.73;;;3.33;;
2061;SDS011;11070;51.336;12.340;2023-08-01T05:24:26;3.90;;;3.47;;
2061;SDS011;11070;51.336;12.340;2023-08-01T05:26:52;3.40;;;3.15;;
2061;SDS011;11070;51.336;12.340;2023-08-01T05:29:18;4.47;;;3.60;;
2061;SDS011;11070;51.336;12.340;2023-08-01T05:31:44;3.80;;;3.40;;
2061;SDS011;11070;51.336;12.340;2023-08-01T05:34:09;3.83;;;3.53;;
2061;SDS011;11070;51.336;12.340;2023-08-01T05:36:35;3.57;;;3.30;;
2061;SDS011;11070;51.336;12.340;2023-08-01T05:39:02;4.07;;;3.78;;
2061;SDS011;11070;51.336;12.340;2023-08-01T05:41:28;4.07;;;3.67;;
2061;SDS011;11070;51.336;12.340;2023-08-01T05:43:54;6.00;;;3.35;;
2061;SDS011;11070;51.336;12.340;2023-08-01T05:46:20;3.50;;;3.20;;
2061;SDS011;11070;51.336;12.340;2023-08-01T05:48:45;3.17;;;2.97;;
2061;SDS011;11070;51.336;12.340;2023-08-01T05:51:11;3.87;;;3.37;;
2061;SDS011;11070;51.336;12.340;2023-08-01T05:53:40;4.43;;;3.15;;
2061;SDS011;11070;51.336;12.340;2023-08-01T05:56:05;3.70;;;3.40;;
2061;SDS011;11070;51.336;12.340;2023-08-01T05:58:31;3.30;;;3.10;;
2061;SDS011;11070;51.336;12.340;2023-08-01T06:00:57;3.10;;;2.87;;
2061;SDS011;11070;51.336;12.340;2023-08-01T06:03:22;3.63;;;3.17;;
2061;SDS011;11070;51.336;12.340;2023-08-01T06:05:48;4.03;;;3.20;;
2061;SDS011;11070;51.336;12.340;2023-08-01T06:08:14;4.40;;;3.45;;
2061;SDS011;11070;51.336;12.340;2023-08-01T06:10:41;2.65;;;2.45;;
2061;SDS011;11070;51.336;12.340;2023-08-01T06:13:07;2.97;;;2.30;;
2061;SDS011;11070;51.336;12.340;2023-08-01T06:15:33;2.95;;;2.75;;
2061;SDS011;11070;51.336;12.340;2023-08-01T06:17:59;2.17;;;2.07;;
2061;SDS011;11070;51.336;12.340;2023-08-01T06:20:24;6.40;;;2.80;;
2061;SDS011;11070;51.336;12.340;2023-08-01T06:22:50;2.37;;;2.17;;
2061;SDS011;11070;51.336;12.340;2023-08-01T06:25:16;2.70;;;2.50;;
2061;SDS011;11070;51.336;12.340;2023-08-01T06:27:42;2.53;;;2.33;;
2061;SDS011;11070;51.336;12.340;2023-08-01T06:30:07;2.33;;;2.13;;
2061;SDS011;11070;51.336;12.340;2023-08-01T06:32:33;2.20;;;2.10;;
2061;SDS011;11070;51.336;12.340;2023-08-01T06:34:59;2.07;;;1.83;;
2061;SDS011;11070;51.336;12.340;2023-08-01T06:37:25;2.50;;;1.67;;
2061;SDS011;11070;51.336;12.340;2023-08-01T06:39:50;1.60;;;1.50;;
2061;SDS011;11070;51.336;12.340;2023-08-01T06:42:16;2.57;;;1.37;;
2061;SDS011;11070;51.336;12.340;2023-08-01T06:44:42;2.73;;;1.00;;
2061;SDS011;11070;51.336;12.340;2023-08-01T06:47:08;2.57;;;1.30;;
2061;SDS011;11070;51.336;12.340;2023-08-01T06:49:33;1.20;;;1.03;;
2061;SDS011;11070;51.336;12.340;2023-08-01T06:51:59;1.60;;;1.23;;
2061;SDS011;11070;51.336;12.340;2023-08-01T06:54:25;1.50;;;1.37;;
2061;SDS011;11070;51.336;12.340;2023-08-01T06:56:50;1.30;;;1.20;;
2061;SDS011;11070;51.336;12.340;2023-08-01T06:59:16;1.93;;;1.20;;
2061;SDS011;11070;51.336;12.340;2023-08-01T07:01:42;1.33;;;1.23;;
2061;SDS011;11070;51.336;12.340;2023-08-01T07:04:12;1.40;;;1.30;;
2061;SDS011;11070;51.336;12.340;2023-08-01T07:06:38;2.10;;;1.17;;
2061;SDS011;11070;51.336;12.340;2023-08-01T07:09:04;2.08;;;1.30;;
2061;SDS011;11070;51.336;12.340;2023-08-01T07:11:30;1.40;;;1.30;;
2061;SDS011;11070;51.336;12.340;2023-08-01T07:13:56;1.83;;;1.23;;
2061;SDS011;11070;51.336;12.340;2023-08-01T07:16:22;1.20;;;1.10;;
2061;SDS011;11070;51.336;12.340;2023-08-01T07:18:48;2.20;;;1.27;;
2061;SDS011;11070;51.336;12.340;2023-08-01T07:21:14;2.93;;;1.60;;
2061;SDS011;11070;51.336;12.340;2023-08-01T07:23:39;2.90;;;1.10;;
2061;SDS011;11070;51.336;12.340;2023-08-01T07:26:05;1.10;;;0.90;;
2061;SDS011;11070;51.336;12.340;2023-08-01T07:28:31;1.73;;;0.80;;
2061;SDS011;11070;51.336;12.340;2023-08-01T07:31:06;1.73;;;0.90;;
2061;SDS011;11070;51.336;12.340;2023-08-01T07:33:33;1.10;;;0.90;;
2061;SDS011;11070;51.336;12.340;2023-08-01T07:35:59;1.23;;;1.13;;
2061;SDS011;11070;51.336;12.340;2023-08-01T07:38:25;1.87;;;1.33;;
2061;SDS011;11070;51.336;12.340;2023-08-01T07:40:54;3.63;;;1.40;;
2061;SDS011;11070;51.336;12.340;2023-08-01T07:43:20;1.15;;;1.00;;
2061;SDS011;11070;51.336;12.340;2023-08-01T07:45:46;1.10;;;0.93;;
2061;SDS011;11070;51.336;12.340;2023-08-01T07:48:11;1.93;;;1.00;;
2061;SDS011;11070;51.336;12.340;2023-08-01T07:50:37;4.67;;;1.10;;
2061;SDS011;11070;51.336;12.340;2023-08-01T07:53:03;1.23;;;1.13;;
2061;SDS011;11070;51.336;12.340;2023-08-01T07:55:28;1.47;;;1.10;;
2061;SDS011;11070;51.336;12.340;2023-08-01T07:57:58;1.92;;;1.00;;
2061;SDS011;11070;51.336;12.340;2023-08-01T08:00:23;2.80;;;1.43;;
2061;SDS011;11070;51.336;12.340;2023-08-01T08:02:49;3.23;;;1.00;;
2061;SDS011;11070;51.336;12.340;2023-08-01T08:05:15;1.03;;;0.93;;
2061;SDS011;11070;51.336;12.340;2023-08-01T08:07:40;1.30;;;1.20;;
2061;SDS011;11070;51.336;12.340;2023-08-01T08:10:06;2.13;;;1.13;;
2061;SDS011;11070;51.336;12.340;2023-08-01T08:12:32;1.60;;;1.20;;
2061;SDS011;11070;51.336;12.340;2023-08-01T08:14:58;1.33;;;1.13;;
2061;SDS011;11070;51.336;12.340;2023-08-01T08:17:24;1.30;;;0.97;;
2061;SDS011;11070;51.336;12.340;2023-08-01T08:19:49;1.10;;;1.00;;
2061;SDS011;11070;51.336;12.340;2023-08-01T08:22:15;1.70;;;0.90;;
2061;SDS011;11070;51.336;12.340;2023-08-01T08:24:40;1.50;;;1.27;;
2061;SDS011;11070;51.336;12.340;2023-08-01T08:27:06;1.30;;;1.20;;
2061;SDS011;11070;51.336;12.340;2023-08-01T08:29:32;0.90;;;0.80;;
2061;SDS011;11070;51.336;12.340;2023-08-01T08:31:58;4.55;;;0.90;;
2061;SDS011;11070;51.336;12.340;2023-08-01T08:34:24;1.10;;;1.00;;
2061;SDS011;11070;51.336;12.340;2023-08-01T08:36:50;3.83;;;1.43;;
2061;SDS011;11070;51.336;12.340;2023-08-01T08:39:16;2.70;;;1.07;;
2061;SDS011;11070;51.336;12.340;2023-08-01T08:41:46;1.40;;;1.10;;
2061;SDS011;11070;51.336;12.340;2023-08-01T08:44:17;2.10;;;0.80;;
2061;SDS011;11070;51.336;12.340;2023-08-01T08:46:50;2.13;;;0.80;;
2061;SDS011;11070;51.336;12.340;2023-08-01T08:49:17;1.00;;;0.82;;
2061;SDS011;11070;51.336;12.340;2023-08-01T08:51:45;1.45;;;0.75;;
2061;SDS011;11070;51.336;12.340;2023-08-01T08:54:11;1.65;;;0.90;;
2061;SDS011;11070;51.336;12.340;2023-08-01T08:56:39;3.33;;;0.90;;
2061;SDS011;11070;51.336;12.340;2023-08-01T08:59:06;1.30;;;1.20;;
2061;SDS011;11070;51.336;12.340;2023-08-01T09:01:32;1.52;;;1.02;;
2061;SDS011;11070;51.336;12.340;2023-08-01T09:03:59;1.33;;;1.00;;
2061;SDS011;11070;51.336;12.340;2023-08-01T09:06:28;2.67;;;0.93;;
2061;SDS011;11070;51.336;12.340;2023-08-01T09:08:58;2.83;;;1.13;;
2061;SDS011;11070;51.336;12.340;2023-08-01T09:11:47;1.63;;;1.33;;
2061;SDS011;11070;51.336;12.340;2023-08-01T09:14:16;1.58;;;1.23;;
2061;SDS011;11070;51.336;12.340;2023-08-01T09:16:43;1.48;;;1.38;;
2061;SDS011;11070;51.336;12.340;2023-08-01T09:19:10;1.70;;;1.27;;
2061;SDS011;11070;51.336;12.340;2023-08-01T09:21:38;1.58;;;1.38;;
2061;SDS011;11070;51.336;12.340;2023-08-01T09:24:08;6.38;;;1.80;;
2061;SDS011;11070;51.336;12.340;2023-08-01T09:26:38;2.33;;;1.38;;
2061;SDS011;11070;51.336;12.340;2023-08-01T09:29:04;2.05;;;1.30;;
2061;SDS011;11070;51.336;12.340;2023-08-01T09:31:34;1.25;;;1.15;;
2061;SDS011;11070;51.336;12.340;2023-08-01T09:34:02;1.35;;;1.25;;
2061;SDS011;11070;51.336;12.340;2023-08-01T09:36:33;1.48;;;1.38;;
2061;SDS011;11070;51.336;12.340;2023-08-01T09:39:03;1.60;;;1.10;;
2061;SDS011;11070;51.336;12.340;2023-08-01T09:41:29;1.23;;;1.13;;
2061;SDS011;11070;51.336;12.340;2023-08-01T09:43:56;1.75;;;1.40;;
2061;SDS011;11070;51.336;12.340;2023-08-01T09:46:22;1.50;;;1.40;;
2061;SDS011;11070;51.336;12.340;2023-08-01T09:48:49;2.00;;;1.10;;
2061;SDS011;11070;51.336;12.340;2023-08-01T09:51:15;2.20;;;1.13;;
2061;SDS011;11070;51.336;12.340;2023-08-01T09:53:55;2.05;;;1.40;;
2061;SDS011;11070;51.336;12.340;2023-08-01T09:56:27;1.85;;;1.20;;
2061;SDS011;11070;51.336;12.340;2023-08-01T09:58:54;2.60;;;1.30;;
2061;SDS011;11070;51.336;12.340;2023-08-01T10:01:21;1.00;;;0.90;;
2061;SDS011;11070;51.336;12.340;2023-08-01T10:03:49;1.35;;;0.93;;
2061;SDS011;11070;51.336;12.340;2023-08-01T10:06:20;1.00;;;0.90;;
2061;SDS011;11070;51.336;12.340;2023-08-01T10:08:47;1.00;;;0.90;;
2061;SDS011;11070;51.336;12.340;2023-08-01T10:11:16;1.10;;;1.00;;
2061;SDS011;11070;51.336;12.340;2023-08-01T10:13:43;1.05;;;0.95;;
2061;SDS011;11070;51.336;12.340;2023-08-01T10:16:10;1.50;;;1.40;;
2061;SDS011;11070;51.336;12.340;2023-08-01T10:18:36;1.90;;;1.10;;
2061;SDS011;11070;51.336;12.340;2023-08-01T10:21:05;1.95;;;1.10;;
2061;SDS011;11070;51.336;12.340;2023-08-01T10:23:33;1.30;;;1.20;;
2061;SDS011;11070;51.336;12.340;2023-08-01T10:25:59;1.20;;;1.00;;
2061;SDS011;11070;51.336;12.340;2023-08-01T10:28:33;1.52;;;1.42;;
2061;SDS011;11070;51.336;12.340;2023-08-01T10:31:07;1.30;;;1.20;;
2061;SDS011;11070;51.336;12.340;2023-08-01T10:33:36;1.40;;;1.23;;
2061;SDS011;11070;51.336;12.340;2023-08-01T10:36:12;1.60;;;1.50;;
2061;SDS011;11070;51.336;12.340;2023-08-01T10:41:26;1.55;;;1.45;;
2061;SDS011;11070;51.336;12.340;2023-08-01T10:49:16;1.20;;;1.10;;
2061;SDS011;11070;51.336;12.340;2023-08-01T10:51:44;1.85;;;1.17;;
2061;SDS011;11070;51.336;12.340;2023-08-01T10:54:22;3.38;;;1.20;;
2061;SDS011;11070;51.336;12.340;2023-08-01T10:56:53;2.08;;;1.25;;
2061;SDS011;11070;51.336;12.340;2023-08-01T10:59:23;1.42;;;1.33;;
2061;SDS011;11070;51.336;12.340;2023-08-01T11:01:52;1.73;;;1.03;;
2061;SDS011;11070;51.336;12.340;2023-08-01T11:04:20;1.83;;;1.30;;
2061;SDS011;11070;51.336;12.340;2023-08-01T11:06:48;2.05;;;1.40;;
2061;SDS011;11070;51.336;12.340;2023-08-01T11:09:15;1.90;;;1.80;;
2061;SDS011;11070;51.336;12.340;2023-08-01T11:11:45;2.10;;;2.00;;
2061;SDS011;11070;51.336;12.340;2023-08-01T11:14:14;2.30;;;2.20;;
2061;SDS011;11070;51.336;12.340;2023-08-01T11:16:41;2.23;;;2.13;;
2061;SDS011;11070;51.336;12.340;2023-08-01T11:19:23;2.00;;;1.90;;
2061;SDS011;11070;51.336;12.340;2023-08-01T11:21:53;2.33;;;2.23;;
2061;SDS011;11070;51.336;12.340;2023-08-01T11:24:21;2.50;;;2.40;;
2061;SDS011;11070;51.336;12.340;2023-08-01T11:26:49;2.47;;;2.37;;
2061;SDS011;11070;51.336;12.340;2023-08-01T11:29:16;2.53;;;2.33;;
2061;SDS011;11070;51.336;12.340;2023-08-01T11:31:52;2.60;;;2.40;;
2061;SDS011;11070;51.336;12.340;2023-08-01T11:34:23;4.40;;;2.80;;
2061;SDS011;11070;51.336;12.340;2023-08-01T11:36:48;2.70;;;2.60;;
2061;SDS011;11070;51.336;12.340;2023-08-01T11:39:15;2.47;;;2.27;;
2061;SDS011;11070;51.336;12.340;2023-08-01T11:41:41;2.60;;;2.40;;
2061;SDS011;11070;51.336;12.340;2023-08-01T11:44:08;3.40;;;2.83;;
2061;SDS011;11070;51.336;12.340;2023-08-01T11:46:36;3.10;;;2.90;;
2061;SDS011;11070;51.336;12.340;2023-08-01T11:49:03;3.17;;;2.90;;
2061;SDS011;11070;51.336;12.340;2023-08-01T11:51:39;3.50;;;2.87;;
2061;SDS011;11070;51.336;12.340;2023-08-01T11:54:08;3.93;;;3.10;;
2061;SDS011;11070;51.336;12.340;2023-08-01T11:56:36;3.57;;;2.93;;
2061;SDS011;11070;51.336;12.340;2023-08-01T11:59:16;3.47;;;3.13;;
2061;SDS011;11070;51.336;12.340;2023-08-01T12:01:43;3.70;;;3.33;;
2061;SDS011;11070;51.336;12.340;2023-08-01T12:04:10;5.37;;;3.40;;
2061;SDS011;11070;51.336;12.340;2023-08-01T12:06:36;3.77;;;3.47;;
2061;SDS011;11070;51.336;12.340;2023-08-01T12:09:10;3.60;;;3.30;;
2061;SDS011;11070;51.336;12.340;2023-08-01T12:11:38;4.23;;;3.50;;
2061;SDS011;11070;51.336;12.340;2023-08-01T12:14:06;5.30;;;4.07;;
2061;SDS011;11070;51.336;12.340;2023-08-01T12:16:39;3.77;;;3.47;;
2061;SDS011;11070;51.336;12.340;2023-08-01T12:19:08;4.17;;;3.70;;
2061;SDS011;11070;51.336;12.340;2023-08-01T12:21:34;4.33;;;3.70;;
2061;SDS011;11070;51.336;12.340;2023-08-01T12:24:03;3.37;;;3.07;;
2061;SDS011;11070;51.336;12.340;2023-08-01T12:26:29;4.20;;;3.80;;
2061;SDS011;11070;51.336;12.340;2023-08-01T12:28:54;4.37;;;3.40;;
2061;SDS011;11070;51.336;12.340;2023-08-01T12:31:21;3.87;;;3.57;;
2061;SDS011;11070;51.336;12.340;2023-08-01T12:33:47;3.73;;;3.43;;
2061;SDS011;11070;51.336;12.340;2023-08-01T12:36:14;4.50;;;3.90;;
2061;SDS011;11070;51.336;12.340;2023-08-01T12:38:40;4.07;;;3.30;;
2061;SDS011;11070;51.336;12.340;2023-08-01T12:41:06;4.53;;;3.87;;
2061;SDS011;11070;51.336;12.340;2023-08-01T12:43:32;3.63;;;3.43;;
2061;SDS011;11070;51.336;12.340;2023-08-01T12:45:58;4.07;;;3.77;;
2061;SDS011;11070;51.336;12.340;2023-08-01T12:48:24;4.20;;;4.00;;
2061;SDS011;11070;51.336;12.340;2023-08-01T12:50:51;4.23;;;3.87;;
2061;SDS011;11070;51.336;12.340;2023-08-01T12:53:16;4.57;;;4.07;;
2061;SDS011;11070;51.336;12.340;2023-08-01T12:55:44;4.67;;;4.20;;
2061;SDS011;11070;51.336;12.340;2023-08-01T12:58:15;4.63;;;4.23;;
2061;SDS011;11070;51.336;12.340;2023-08-01T13:00:41;4.23;;;3.93;;
2061;SDS011;11070;51.336;12.340;2023-08-01T13:03:08;4.20;;;3.80;;
2061;SDS011;11070;51.336;12.340;2023-08-01T13:05:37;5.53;;;4.00;;
2061;SDS011;11070;51.336;12.340;2023-08-01T13:08:04;4.93;;;4.57;;
2061;SDS011;11070;51.336;12.340;2023-08-01T13:10:30;4.63;;;4.30;;
2061;SDS011;11070;51.336;12.340;2023-08-01T13:12:57;5.07;;;4.57;;
2061;SDS011;11070;51.336;12.340;2023-08-01T13:15:23;4.60;;;4.30;;
2061;SDS011;11070;51.336;12.340;2023-08-01T13:17:49;4.60;;;4.20;;
2061;SDS011;11070;51.336;12.340;2023-08-01T13:20:15;5.13;;;4.73;;
2061;SDS011;11070;51.336;12.340;2023-08-01T13:22:41;4.77;;;4.47;;
2061;SDS011;11070;51.336;12.340;2023-08-01T13:25:08;5.07;;;4.67;;
2061;SDS011;11070;51.336;12.340;2023-08-01T13:27:34;5.10;;;4.73;;
2061;SDS011;11070;51.336;12.340;2023-08-01T13:30:00;5.70;;;5.23;;
2061;SDS011;11070;51.336;12.340;2023-08-01T13:32:27;8.70;;;6.60;;
2061;SDS011;11070;51.336;12.340;2023-08-01T13:34:53;6.20;;;5.67;;
2061;SDS011;11070;51.336;12.340;2023-08-01T13:37:19;5.17;;;4.87;;
2061;SDS011;11070;51.336;12.340;2023-08-01T13:39:44;6.07;;;5.57;;
2061;SDS011;11070;51.336;12.340;2023-08-01T13:42:11;5.50;;;5.00;;
2061;SDS011;11070;51.336;12.340;2023-08-01T13:44:37;5.90;;;5.50;;
2061;SDS011;11070;51.336;12.340;2023-08-01T13:47:03;7.37;;;5.83;;
2061;SDS011;11070;51.336;12.340;2023-08-01T13:49:29;8.73;;;5.67;;
2061;SDS011;11070;51.336;12.340;2023-08-01T13:51:55;6.13;;;5.53;;
2061;SDS011;11070;51.336;12.340;2023-08-01T13:54:21;6.53;;;5.80;;
2061;SDS011;11070;51.336;12.340;2023-08-01T13:56:46;6.23;;;5.73;;
2061;SDS011;11070;51.336;12.340;2023-08-01T13:59:12;7.37;;;6.00;;
2061;SDS011;11070;51.336;12.340;2023-08-01T14:01:38;6.90;;;6.30;;
2061;SDS011;11070;51.336;12.340;2023-08-01T14:04:04;8.17;;;7.47;;
2061;SDS011;11070;51.336;12.340;2023-08-01T14:06:30;8.93;;;8.07;;
2061;SDS011;11070;51.336;12.340;2023-08-01T14:08:55;5.53;;;5.13;;
2061;SDS011;11070;51.336;12.340;2023-08-01T14:11:21;3.63;;;3.33;;
2061;SDS011;11070;51.336;12.340;2023-08-01T14:13:47;6.00;;;4.90;;
2061;SDS011;11070;51.336;12.340;2023-08-01T14:16:13;5.67;;;5.13;;
2061;SDS011;11070;51.336;12.340;2023-08-01T14:18:39;7.20;;;6.50;;
2061;SDS011;11070;51.336;12.340;2023-08-01T14:21:05;7.20;;;6.50;;
2061;SDS011;11070;51.336;12.340;2023-08-01T14:23:30;8.70;;;6.60;;
2061;SDS011;11070;51.336;12.340;2023-08-01T14:25:57;7.78;;;7.00;;
2061;SDS011;11070;51.336;12.340;2023-08-01T14:28:23;7.22;;;6.53;;
2061;SDS011;11070;51.336;12.340;2023-08-01T14:31:04;6.50;;;5.90;;
2061;SDS011;11070;51.336;12.340;2023-08-01T14:33:30;6.57;;;5.90;;
2061;SDS011;11070;51.336;12.340;2023-08-01T14:35:56;7.23;;;6.40;;
2061;SDS011;11070;51.336;12.340;2023-08-01T14:38:22;5.63;;;5.13;;
2061;SDS011;11070;51.336;12.340;2023-08-01T14:40:48;5.80;;;5.30;;
2061;SDS011;11070;51.336;12.340;2023-08-01T14:43:14;7.13;;;6.03;;
2061;SDS011;11070;51.336;12.340;2023-08-01T14:45:39;5.27;;;4.77;;
2061;SDS011;11070;51.336;12.340;2023-08-01T14:48:08;5.07;;;4.57;;
2061;SDS011;11070;51.336;12.340;2023-08-01T14:50:34;3.73;;;3.43;;
2061;SDS011;11070;51.336;12.340;2023-08-01T14:53:00;4.83;;;3.20;;